Time;durP1;ratioP1;P1;durP2;ratioP2;P2;SDS_P1;SDS_P2;PMS_P1;PMS_P2;Temp;Humidity;BMP_temperature;BMP_pressure;BME280_temperature;BME280_humidity;BME280_pressure;Samples;Min_cycle;Max_cycle;Signal;HPM_P1;HPM_P2
2022/04/27 00:06:56;;;;;;;36.5;43.1;;;;;;;-133;100;79250;;;;
2022/04/27 00:16:48;;;;;;;36.4;43.4;;;;;;;-133;100;79260;;;;
2022/04/27 00:27:54;;;;;;;36.4;43.4;;;;;;;-133;100;79250;;;;
2022/04/27 00:37:47;;;;;;;36.4;43.4;;;;;;;-133;100;79270;;;;
2022/04/27 00:48:47;;;;;;;32.8;36.8;;;;;;;-133;100;79290;;;;
2022/04/27 00:58:48;;;;;;;32.8;36.8;;;;;;;-133;100;79300;;;;
2022/04/27 01:09:47;;;;;;;32.8;36.8;;;;;;;-133;100;79320;;;;
2022/04/27 01:20:47;;;;;;;31.8;37.1;;;;;;;-133;100;79320;;;;
2022/04/27 01:30:47;;;;;;;31.8;37.1;;;;;;;-133;100;79330;;;;
2022/04/27 01:41:47;;;;;;;30.6;34.9;;;;;;;-133;100;79330;;;;
2022/04/27 02:02:47;;;;;;;30.6;34.9;;;;;;;-133;100;79310;;;;
2022/04/27 02:12:47;;;;;;;32.7;38.4;;;;;;;-133;100;79310;;;;
2022/04/27 02:23:47;;;;;;;32.7;38.4;;;;;;;-133;100;79310;;;;
2022/04/27 02:33:47;;;;;;;32.7;38.4;;;;;;;-133;100;79310;;;;
2022/04/27 02:44:47;;;;;;;33.1;39;;;;;;;-133;100;79310;;;;
2022/04/27 02:54:47;;;;;;;33.1;39;;;;;;;-133;100;79310;;;;
2022/04/27 03:05:47;;;;;;;33.1;39;;;;;;;-133;100;79300;;;;
2022/04/27 03:16:47;;;;;;;31.3;35.5;;;;;;;-133;100;79300;;;;
2022/04/27 03:26:47;;;;;;;31.3;35.5;;;;;;;-133;100;79280;;;;
2022/04/27 03:36:47;;;;;;;31.3;35.5;;;;;;;-133;100;79270;;;;
2022/04/27 03:46:47;;;;;;;30.9;35.7;;;;;;;-133;100;79250;;;;
2022/04/27 03:56:47;;;;;;;30.9;35.7;;;;;;;-133;100;79220;;;;
2022/04/27 04:07:47;;;;;;;30.9;35.7;;;;;;;-133;100;79210;;;;
2022/04/27 04:18:47;;;;;;;36.9;41.3;;;;;;;-133;100;79200;;;;
2022/04/27 04:28:47;;;;;;;36.9;41.3;;;;;;;-133;100;79180;;;;
2022/04/27 04:38:47;;;;;;;36.9;41.3;;;;;;;-133;100;79180;;;;
2022/04/27 04:49:47;;;;;;;38.8;45.4;;;;;;;-133;100;79150;;;;
2022/04/27 04:59:47;;;;;;;38.8;45.4;;;;;;;-133;100;79120;;;;
2022/04/27 05:09:47;;;;;;;36.8;43.1;;;;;;;-133;100;79120;;;;
2022/04/27 05:20:47;;;;;;;37;41.7;;;;;;;-133;100;79090;;;;
2022/04/27 05:40:47;;;;;;;37;41.7;;;;;;;-133;98.4;79040;;;;
2022/04/27 05:51:47;;;;;;;35;41.3;;;;;;;-133;98.1;78990;;;;
2022/04/27 06:02:47;;;;;;;35;41.3;;;;;;;-133;97;78940;;;;
2022/04/27 06:12:47;;;;;;;35;41.3;;;;;;;-133;95.2;78890;;;;
2022/04/27 06:23:47;;;;;;;35.2;41.6;;;;;;;-133;94;78890;;;;
2022/04/27 06:34:47;;;;;;;35.2;41.6;;;;;;;-133;92.7;78880;;;;
2022/04/27 06:44:48;;;;;;;35.2;41.6;;;;;;;-133;91.8;78830;;;;
2022/04/27 06:55:48;;;;;;;30.2;35.7;;;;;;;-133;90.5;78810;;;;
2022/04/27 07:06:47;;;;;;;30.2;35.7;;;;;;;-133;88.3;78760;;;;
2022/04/27 07:16:47;;;;;;;22.1;25.4;;;;;;;-133;86.4;78740;;;;
2022/04/27 07:26:47;;;;;;;22.1;25.4;;;;;;;-133;86.3;78730;;;;
2022/04/27 07:37:47;;;;;;;22.1;25.4;;;;;;;-133;84.5;78700;;;;
2022/04/27 07:47:47;;;;;;;20.6;23.3;;;;;;;-133;83.7;78700;;;;
2022/04/27 07:57:48;;;;;;;20.6;23.3;;;;;;;-133;82.1;78650;;;;
2022/04/27 08:07:47;;;;;;;20.6;23.3;;;;;;;-133;80.4;78640;;;;
2022/04/27 08:18:47;;;;;;;17.6;22.5;;;;;;;-133;78.5;78610;;;;
2022/04/27 08:28:47;;;;;;;17.6;22.5;;;;;;;-133;79.6;78620;;;;
2022/04/27 08:38:47;;;;;;;17.6;22.5;;;;;;;-133;78.8;78610;;;;
2022/04/27 08:49:47;;;;;;;16.2;20.1;;;;;;;-133;77.4;78540;;;;
2022/04/27 09:00:47;;;;;;;16.2;20.1;;;;;;;-133;74.6;78520;;;;
2022/04/27 09:10:47;;;;;;;16.2;20.1;;;;;;;-133;74.6;78490;;;;
2022/04/27 09:21:48;;;;;;;13.4;18;;;;;;;-133;71.1;78500;;;;
2022/04/27 09:31:47;;;;;;;13.4;18;;;;;;;-133;70.5;78490;;;;
2022/04/27 09:42:47;;;;;;;12.2;13.7;;;;;;;-133;68.6;78460;;;;
2022/04/27 09:53:47;;;;;;;11.6;18.9;;;;;;;-133;71.3;78450;;;;
2022/04/27 10:04:47;;;;;;;11.6;18.9;;;;;;;-133;69.6;78450;;;;
2022/04/27 10:14:47;;;;;;;10.4;13.2;;;;;;;-133;71.2;78510;;;;
2022/04/27 10:25:47;;;;;;;10.4;13.2;;;;;;;-133;71.4;78490;;;;
2022/04/27 10:35:47;;;;;;;10.4;13.2;;;;;;;-133;70.3;78490;;;;
2022/04/27 10:46:47;;;;;;;10.6;13.4;;;;;;;-133;70.4;78410;;;;
2022/04/27 10:56:47;;;;;;;10.6;13.4;;;;;;;-133;69.3;78350;;;;
2022/04/27 11:07:47;;;;;;;10.6;13.4;;;;;;;-133;70;78360;;;;
2022/04/27 11:17:47;;;;;;;11.9;14.7;;;;;;;-133;69.2;78380;;;;
2022/04/27 11:28:47;;;;;;;11.9;14.7;;;;;;;-133;71.3;78430;;;;
2022/04/27 11:38:47;;;;;;;11.9;14.7;;;;;;;-133;72.2;78500;;;;
2022/04/27 11:49:47;;;;;;;11.7;14.5;;;;;;;-133;70.6;78460;;;;
2022/04/27 11:59:47;;;;;;;11.7;14.5;;;;;;;-133;70.2;78420;;;;
2022/04/27 12:10:49;;;;;;;11.7;14.5;;;;;;;-133;70.6;78410;;;;
2022/04/27 12:20:48;;;;;;;11.9;15.5;;;;;;;-133;70.1;78420;;;;
2022/04/27 12:30:48;;;;;;;11.9;15.5;;;;;;;-133;71.5;78430;;;;
2022/04/27 12:41:47;;;;;;;11.9;15.5;;;;;;;-133;70;78440;;;;
2022/04/27 12:52:47;;;;;;;11.9;14.6;;;;;;;-133;70.6;78440;;;;
2022/04/27 13:02:47;;;;;;;11.9;14.6;;;;;;;-133;70.4;78430;;;;
2022/04/27 13:12:47;;;;;;;11.9;14.6;;;;;;;-133;71;78430;;;;
2022/04/27 13:22:47;;;;;;;13.2;18.3;;;;;;;-133;70.7;78420;;;;
2022/04/27 13:33:47;;;;;;;13.2;18.3;;;;;;;-133;70.6;78370;;;;
2022/04/27 13:43:47;;;;;;;13.2;18.3;;;;;;;-133;69.7;78340;;;;
2022/04/27 13:54:47;;;;;;;12.6;15.8;;;;;;;-133;70.6;78360;;;;
2022/04/27 14:04:47;;;;;;;12.6;15.8;;;;;;;-133;68.2;78300;;;;
2022/04/27 14:25:47;;;;;;;12.8;16.6;;;;;;;-133;68.5;78300;;;;
2022/04/27 14:36:48;;;;;;;12.8;16.6;;;;;;;-133;68.5;78340;;;;
2022/04/27 14:47:47;;;;;;;11.6;13.1;;;;;;;-133;70.2;78340;;;;
2022/04/27 14:58:47;;;;;;;11.6;13.1;;;;;;;-133;70.5;78350;;;;
2022/04/27 15:08:47;;;;;;;11.6;13.1;;;;;;;-133;69.6;78320;;;;
2022/04/27 15:22:41;;;;;;;11.8;17.8;;;;;;;-133;70.1;78330;;;;
2022/04/27 15:30:47;;;;;;;11.8;17.8;;;;;;;-133;71.7;78340;;;;
2022/04/27 15:40:49;;;;;;;11.8;17.8;;;;;;;-133;71.6;78350;;;;
2022/04/27 15:50:47;;;;;;;12.6;16.8;;;;;;;-133;70.6;78330;;;;
2022/04/27 16:01:48;;;;;;;12.6;16.8;;;;;;;-133;70.4;78220;;;;
2022/04/27 16:12:47;;;;;;;12.6;16.8;;;;;;;-133;59.2;77880;;;;
2022/04/27 16:23:19;;;;;;;13.3;15.8;;;;;;;-133;62;77960;;;;
2022/04/27 16:32:47;;;;;;;13.3;15.8;;;;;;;-133;64.8;78110;;;;
2022/04/27 16:43:48;;;;;;;13.3;15.8;;;;;;;-133;69.2;78280;;;;
2022/04/27 16:53:48;;;;;;;14;17.2;;;;;;;-133;72.3;78360;;;;
2022/04/27 17:03:47;;;;;;;14;17.2;;;;;;;-133;72.5;78400;;;;
2022/04/27 17:14:47;;;;;;;12.9;16.9;;;;;;;-133;73.6;78460;;;;
2022/04/27 17:24:47;;;;;;;;;;;;;;;;;;;;;
2022/04/27 17:35:47;;;;;;;;;;;;;;;;;;;;;
2022/04/27 17:45:47;;;;;;;;;;;;;;;;;;;;;
2022/04/27 17:55:47;;;;;;;;;;;;;;;;;;;;;
2022/04/27 18:05:47;;;;;;;;;;;;;;;;;;;;;
2022/04/27 18:15:48;;;;;;;;;;;;;;;;;;;;;
2022/04/27 18:26:47;;;;;;;;;;;;;;;;;;;;;
2022/04/27 18:37:47;;;;;;;;;;;;;;;;;;;;;
2022/04/27 18:58:48;;;;;;;;;;;;;;;;;;;;;
2022/04/27 19:08:47;;;;;;;;;;;;;;;;;;;;;
2022/04/27 19:19:47;;;;;;;;;;;;;;;;;;;;;
2022/04/27 19:29:49;;;;;;;;;;;;;;;;;;;;;
2022/04/27 19:40:48;;;;;;;;;;;;;;;;;;;;;
2022/04/27 19:51:50;;;;;;;;;;;;;;;;;;;;;
2022/04/27 20:02:48;;;;;;;;;;;;;;;;;;;;;
2022/04/27 20:13:47;;;;;;;;;;;;;;;;;;;;;
2022/04/27 20:23:49;;;;;;;;;;;;;;;;;;;;;
2022/04/27 20:34:48;;;;;;;;;;;;;;;;;;;;;
2022/04/27 20:45:47;;;;;;;;;;;;;;;;;;;;;
2022/04/27 20:55:47;;;;;;;;;;;;;;;;;;;;;
2022/04/27 21:05:48;;;;;;;;;;;;;;;;;;;;;
2022/04/27 21:15:48;;;;;;;;;;;;;;;;;;;;;
2022/04/27 21:26:49;;;;;;;;;;;;;;;;;;;;;
2022/04/27 21:36:48;;;;;;;;;;;;;;;;;;;;;
2022/04/27 21:47:48;;;;;;;;;;;;;;;;;;;;;
2022/04/27 21:58:48;;;;;;;;;;;;;;;;;;;;;
2022/04/27 22:08:48;;;;;;;;;;;;;;;;;;;;;
2022/04/27 22:19:49;;;;;;;;;;;;;;;;;;;;;
2022/04/27 22:30:48;;;;;;;;;;;;;;;;;;;;;
2022/04/27 22:40:48;;;;;;;;;;;;;;;;;;;;;
2022/04/27 22:50:48;;;;;;;;;;;;;;;;;;;;;
2022/04/27 23:01:48;;;;;;;;;;;;;;;;;;;;;
2022/04/27 23:11:48;;;;;;;;;;;;;;;;;;;;;
2022/04/27 23:21:48;;;;;;;;;;;;;;;;;;;;;
2022/04/27 23:32:48;;;;;;;;;;;;;;;;;;;;;
2022/04/27 23:42:48;;;;;;;;;;;;;;;;;;;;;
2022/04/27 23:52:48;;;;;;;;;;;;;;;;;;;;;
